createdAt,value
2019-06-20T00:01:58.140Z,32.60
2019-06-20T00:04:52.405Z,32.60
2019-06-20T00:07:47.230Z,32.60
2019-06-20T00:10:41.674Z,32.60
2019-06-20T00:13:36.193Z,32.60
2019-06-20T00:16:30.614Z,32.60
2019-06-20T00:19:24.908Z,32.70
2019-06-20T00:22:19.165Z,32.70
2019-06-20T00:25:13.573Z,32.70
2019-06-20T00:28:08.150Z,32.70
2019-06-20T00:31:03.559Z,32.70
2019-06-20T00:33:57.923Z,32.70
2019-06-20T00:36:53.637Z,32.70
2019-06-20T00:39:47.868Z,32.70
2019-06-20T00:42:42.697Z,32.70
2019-06-20T00:45:37.716Z,32.70
2019-06-20T00:48:32.182Z,32.70
2019-06-20T00:51:26.838Z,32.70
2019-06-20T00:54:21.446Z,32.70
2019-06-20T00:57:15.767Z,32.70
2019-06-20T01:00:12.058Z,32.70
2019-06-20T01:03:06.721Z,32.70
2019-06-20T01:06:00.982Z,32.70
2019-06-20T01:08:55.600Z,32.70
2019-06-20T01:11:49.991Z,32.70
2019-06-20T01:14:44.215Z,32.80
2019-06-20T01:17:38.838Z,32.80
2019-06-20T01:20:33.512Z,32.80
2019-06-20T01:23:27.790Z,32.80
2019-06-20T01:26:22.178Z,32.80
2019-06-20T01:29:16.408Z,32.80
2019-06-20T01:32:11.053Z,32.90
2019-06-20T01:35:06.855Z,32.90
2019-06-20T01:38:01.573Z,32.90
2019-06-20T01:40:56.154Z,32.90
2019-06-20T01:43:51.296Z,32.90
2019-06-20T01:46:45.771Z,33.00
2019-06-20T01:49:40.742Z,33.00
2019-06-20T01:52:35.175Z,33.00
2019-06-20T01:55:31.153Z,33.00
2019-06-20T01:58:25.775Z,33.00
2019-06-20T02:01:20.136Z,33.00
2019-06-20T02:04:14.913Z,33.10
2019-06-20T02:07:09.850Z,33.10
2019-06-20T02:10:04.189Z,33.10
2019-06-20T02:12:58.751Z,33.10
2019-06-20T02:15:53.308Z,33.10
2019-06-20T02:18:47.878Z,33.10
2019-06-20T02:21:42.240Z,33.10
2019-06-20T02:24:37.444Z,33.20
2019-06-20T02:27:31.711Z,33.20
2019-06-20T02:30:26.543Z,33.20
2019-06-20T02:33:20.890Z,33.20
2019-06-20T02:36:17.392Z,33.20
2019-06-20T02:39:12.963Z,33.20
2019-06-20T02:42:07.471Z,33.20
2019-06-20T02:45:02.212Z,33.20
2019-06-20T02:47:57.026Z,33.20
2019-06-20T02:50:51.315Z,33.20
2019-06-20T02:53:47.004Z,33.20
2019-06-20T02:56:41.202Z,33.20
2019-06-20T02:59:36.014Z,33.20
2019-06-20T03:02:30.326Z,33.20
2019-06-20T03:05:24.895Z,33.20
2019-06-20T03:08:19.219Z,33.30
2019-06-20T03:11:13.880Z,33.30
2019-06-20T03:14:08.158Z,33.30
2019-06-20T03:17:03.124Z,33.30
2019-06-20T03:19:57.177Z,33.40
2019-06-20T03:22:51.638Z,33.40
2019-06-20T03:25:47.814Z,33.40
2019-06-20T03:28:41.872Z,33.40
2019-06-20T03:31:36.191Z,33.50
2019-06-20T03:34:31.124Z,33.50
2019-06-20T03:37:26.320Z,33.60
2019-06-20T03:40:21.729Z,33.60
2019-06-20T03:43:15.982Z,33.60
2019-06-20T03:46:11.396Z,33.60
2019-06-20T03:49:06.153Z,33.60
2019-06-20T03:52:01.951Z,33.70
2019-06-20T03:54:56.716Z,33.70
2019-06-20T03:57:51.601Z,33.70
2019-06-20T04:00:46.041Z,33.70
2019-06-20T04:03:40.400Z,33.80
2019-06-20T04:06:34.491Z,33.80
2019-06-20T04:09:28.650Z,33.90
2019-06-20T04:12:25.193Z,33.90
2019-06-20T04:15:20.031Z,34.00
2019-06-20T04:18:14.507Z,33.90
2019-06-20T04:21:09.629Z,34.00
2019-06-20T04:24:04.130Z,34.00
2019-06-20T04:26:59.530Z,34.00
2019-06-20T04:29:54.146Z,34.10
2019-06-20T04:32:49.211Z,34.20
2019-06-20T04:35:43.861Z,34.20
2019-06-20T04:38:39.527Z,34.20
2019-06-20T04:41:35.868Z,34.30
2019-06-20T04:44:45.956Z,34.40
2019-06-20T04:47:40.506Z,34.40
2019-06-20T04:50:36.040Z,34.50
2019-06-20T04:53:30.827Z,34.50
2019-06-20T04:56:25.204Z,34.60
2019-06-20T04:59:19.831Z,34.60
2019-06-20T05:02:43.854Z,34.70
2019-06-20T05:05:37.904Z,34.70
2019-06-20T05:08:33.230Z,34.80
2019-06-20T05:11:31.030Z,34.90
2019-06-20T05:14:25.522Z,34.90
2019-06-20T05:17:20.423Z,34.90
2019-06-20T05:20:16.678Z,35.00
2019-06-20T05:23:20.109Z,35.10
2019-06-20T05:26:23.940Z,35.20
2019-06-20T05:29:19.281Z,35.30
2019-06-20T05:32:16.647Z,35.30
2019-06-20T05:35:15.781Z,35.40
2019-06-20T05:38:11.231Z,35.40
2019-06-20T05:41:18.767Z,35.50
2019-06-20T05:44:13.329Z,35.60
2019-06-20T05:47:13.594Z,35.60
2019-06-20T05:50:04.938Z,35.60
2019-06-20T05:52:59.073Z,35.70
2019-06-20T05:55:53.790Z,35.80
2019-06-20T05:58:48.692Z,35.80
2019-06-20T06:01:44.614Z,35.80
2019-06-20T06:04:40.819Z,35.90
2019-06-20T06:07:36.397Z,36.00
2019-06-20T06:10:38.095Z,36.00
2019-06-20T06:13:33.506Z,36.10
2019-06-20T06:16:28.586Z,36.20
2019-06-20T06:19:28.302Z,36.20
2019-06-20T06:22:37.239Z,36.30
2019-06-20T06:25:33.545Z,36.40
2019-06-20T06:28:36.243Z,36.40
2019-06-20T06:31:33.110Z,36.40
2019-06-20T06:34:33.070Z,36.60
2019-06-20T06:37:32.797Z,36.60
2019-06-20T06:40:30.867Z,36.60
2019-06-20T06:43:26.811Z,36.70
2019-06-20T06:46:25.397Z,36.70
2019-06-20T06:49:21.997Z,36.80
2019-06-20T06:52:17.056Z,36.80
2019-06-20T06:55:12.458Z,36.90
2019-06-20T06:58:09.660Z,36.90
2019-06-20T07:01:04.812Z,37.00
2019-06-20T07:04:12.955Z,37.00
2019-06-20T07:07:09.528Z,37.10
2019-06-20T07:10:06.246Z,37.20
2019-06-20T07:13:02.964Z,37.20
2019-06-20T07:16:05.721Z,37.30
2019-06-20T07:19:25.250Z,37.30
2019-06-20T07:22:20.459Z,37.40
2019-06-20T07:25:19.147Z,37.50
2019-06-20T07:28:17.418Z,37.60
2019-06-20T07:31:24.073Z,37.70
2019-06-20T07:34:51.731Z,37.70
2019-06-20T07:41:24.298Z,37.90
2019-06-20T07:44:38.023Z,37.90
2019-06-20T07:47:33.737Z,37.90
2019-06-20T07:50:29.872Z,38.00
2019-06-20T07:53:24.622Z,38.00
2019-06-20T07:56:19.968Z,38.00
2019-06-20T07:59:15.468Z,38.00
2019-06-20T08:02:24.877Z,38.00
2019-06-20T08:05:21.610Z,37.90
2019-06-20T08:08:15.976Z,37.90
2019-06-20T08:11:12.342Z,37.80
2019-06-20T08:14:07.094Z,37.70
2019-06-20T08:17:03.751Z,37.60
2019-06-20T08:19:57.769Z,37.40
2019-06-20T08:22:53.719Z,37.30
2019-06-20T08:25:48.336Z,37.20
2019-06-20T08:28:44.120Z,37.10
2019-06-20T08:31:44.439Z,37.00
2019-06-20T08:34:44.578Z,36.90
2019-06-20T08:37:39.522Z,36.90
2019-06-20T08:40:42.778Z,36.90
2019-06-20T08:43:48.193Z,36.90
2019-06-20T08:46:44.788Z,36.90
2019-06-20T08:49:40.333Z,36.90
2019-06-20T08:52:38.372Z,37.10
2019-06-20T08:55:35.301Z,37.20
2019-06-20T09:18:07.388Z,38.00
2019-06-20T09:21:03.719Z,38.10
2019-06-20T09:24:01.001Z,38.10
2019-06-20T09:27:04.660Z,38.10
2019-06-20T09:30:03.511Z,38.10
2019-06-20T09:33:01.206Z,38.10
2019-06-20T09:36:01.272Z,38.10
2019-06-20T09:39:03.805Z,38.00
2019-06-20T09:41:59.566Z,38.00
2019-06-20T09:44:56.403Z,38.00
2019-06-20T09:47:55.946Z,38.00
2019-06-20T09:50:57.010Z,38.00
2019-06-20T09:53:56.272Z,38.00
2019-06-20T09:56:55.374Z,38.00
2019-06-20T10:00:03.278Z,38.00
2019-06-20T10:02:48.930Z,38.00
2019-06-20T10:06:14.571Z,38.00
2019-06-20T10:09:20.835Z,38.00
2019-06-20T10:12:25.018Z,38.00
2019-06-20T10:15:28.182Z,38.00
2019-06-20T10:18:25.405Z,38.00
2019-06-20T10:21:22.534Z,38.00
2019-06-20T10:24:19.829Z,38.00
2019-06-20T10:27:17.002Z,38.00
2019-06-20T10:30:16.232Z,38.00
2019-06-20T10:33:13.153Z,38.00
2019-06-20T10:36:08.723Z,38.00
2019-06-20T10:39:09.909Z,38.00
2019-06-20T10:42:05.331Z,38.00
2019-06-20T10:45:03.498Z,38.00
2019-06-20T10:48:04.765Z,38.00
2019-06-20T10:51:19.120Z,38.00
2019-06-20T10:54:23.439Z,38.00
2019-06-20T10:57:22.427Z,38.00
2019-06-20T11:00:31.816Z,38.00
2019-06-20T11:03:36.439Z,38.00
2019-06-20T11:06:43.192Z,38.00
2019-06-20T11:09:52.241Z,38.00
2019-06-20T11:12:55.599Z,37.90
2019-06-20T11:15:53.535Z,37.90
2019-06-20T11:18:49.551Z,37.80
2019-06-20T11:21:45.806Z,37.70
2019-06-20T11:24:43.298Z,37.70
2019-06-20T11:27:38.859Z,37.60
2019-06-20T11:30:46.745Z,37.50
2019-06-20T11:33:36.573Z,37.50
2019-06-20T11:36:31.036Z,37.40
2019-06-20T11:39:26.735Z,37.30
2019-06-20T11:42:33.158Z,37.30
2019-06-20T11:45:28.761Z,37.20
2019-06-20T11:48:26.389Z,37.10
2019-06-20T11:51:23.139Z,37.10
2019-06-20T11:54:19.067Z,37.10
2019-06-20T11:57:14.478Z,37.00
2019-06-20T12:00:13.328Z,37.00
2019-06-20T12:03:09.270Z,36.90
2019-06-20T12:06:06.544Z,36.80
2019-06-20T12:09:05.743Z,36.80
2019-06-20T12:12:01.040Z,36.70
2019-06-20T12:14:58.902Z,36.70
2019-06-20T12:17:55.149Z,36.60
2019-06-20T12:20:52.617Z,36.60
2019-06-20T12:23:49.021Z,36.60
2019-06-20T12:26:46.862Z,36.60
2019-06-20T12:29:42.394Z,36.50
2019-06-20T12:32:42.359Z,36.50
2019-06-20T12:35:42.714Z,36.40
2019-06-20T12:38:50.776Z,36.40
2019-06-20T12:41:53.785Z,36.30
2019-06-20T12:44:50.835Z,36.30
2019-06-20T12:48:11.849Z,36.20
2019-06-20T12:51:07.909Z,36.20
2019-06-20T12:54:31.691Z,36.10
2019-06-20T12:57:26.761Z,36.10
2019-06-20T13:00:22.514Z,36.00
2019-06-20T13:03:18.042Z,36.00
2019-06-20T13:06:13.766Z,36.00
2019-06-20T13:09:10.673Z,35.90
2019-06-20T13:12:06.687Z,35.90
2019-06-20T13:15:01.813Z,35.80
2019-06-20T13:17:58.733Z,35.80
2019-06-20T13:20:53.912Z,35.80
2019-06-20T13:23:49.836Z,35.70
2019-06-20T13:26:45.493Z,35.70
2019-06-20T13:29:40.789Z,35.70
2019-06-20T13:32:36.510Z,35.70
2019-06-20T13:35:31.965Z,35.60
2019-06-20T13:38:27.007Z,35.60
2019-06-20T13:41:23.685Z,35.50
2019-06-20T13:44:19.560Z,35.50
2019-06-20T13:47:14.487Z,35.50
2019-06-20T13:50:10.831Z,35.50
2019-06-20T13:53:06.192Z,35.50
2019-06-20T13:56:01.561Z,35.40
2019-06-20T13:58:57.709Z,35.40
2019-06-20T14:02:05.893Z,35.40
2019-06-20T14:04:50.742Z,35.30
2019-06-20T14:07:48.336Z,35.30
2019-06-20T14:10:44.148Z,35.20
2019-06-20T14:13:41.076Z,35.20
2019-06-20T14:16:35.687Z,35.20
2019-06-20T14:19:30.879Z,35.20
2019-06-20T14:22:26.226Z,35.20
2019-06-20T14:25:22.738Z,35.10
2019-06-20T14:28:19.057Z,35.10
2019-06-20T14:31:18.615Z,35.10
2019-06-20T14:34:16.053Z,35.10
2019-06-20T14:37:11.500Z,35.00
2019-06-20T14:40:06.763Z,35.00
2019-06-20T14:43:03.226Z,35.00
2019-06-20T14:45:58.723Z,35.00
2019-06-20T14:48:54.246Z,34.90
2019-06-20T14:51:50.124Z,34.90
2019-06-20T14:54:45.926Z,34.90
2019-06-20T14:57:44.653Z,34.90
2019-06-20T15:00:40.192Z,34.90
2019-06-20T15:03:35.597Z,34.80
2019-06-20T15:06:31.596Z,34.80
2019-06-20T15:09:26.751Z,34.80
2019-06-20T15:12:22.460Z,34.70
2019-06-20T15:15:20.416Z,34.60
2019-06-20T15:18:18.520Z,34.40
2019-06-20T15:21:14.013Z,34.10
2019-06-20T15:24:09.323Z,33.90
2019-06-20T15:27:04.661Z,33.60
2019-06-20T15:29:59.895Z,33.40
2019-06-20T15:33:07.495Z,33.20
2019-06-20T15:35:53.419Z,33.00
2019-06-20T15:38:49.431Z,32.80
2019-06-20T15:41:44.717Z,32.70
2019-06-20T15:44:40.446Z,32.60
2019-06-20T15:47:35.236Z,32.50
2019-06-20T15:50:30.302Z,32.40
2019-06-20T15:53:25.545Z,32.30
2019-06-20T15:56:20.538Z,32.20
2019-06-20T15:59:18.119Z,32.10
2019-06-20T16:02:13.113Z,32.00
2019-06-20T16:05:09.561Z,31.90
2019-06-20T16:08:05.184Z,31.80
2019-06-20T16:11:00.082Z,31.70
2019-06-20T16:13:56.439Z,31.70
2019-06-20T16:16:51.905Z,31.60
2019-06-20T16:19:47.091Z,31.50
2019-06-20T16:22:41.823Z,31.40
2019-06-20T16:25:38.385Z,31.40
2019-06-20T16:28:33.924Z,31.40
2019-06-20T16:31:28.870Z,31.30
2019-06-20T16:34:23.914Z,31.30
2019-06-20T16:37:19.448Z,31.20
2019-06-20T16:40:15.288Z,31.20
2019-06-20T16:43:10.530Z,31.10
2019-06-20T16:46:06.739Z,31.00
2019-06-20T16:49:01.528Z,31.00
2019-06-20T16:51:56.262Z,30.90
2019-06-20T16:54:51.886Z,30.80
2019-06-20T16:57:46.679Z,30.70
2019-06-20T17:00:42.023Z,30.70
2019-06-20T17:03:41.558Z,30.60
2019-06-20T17:06:34.745Z,30.60
2019-06-20T17:09:30.703Z,30.60
2019-06-20T17:12:26.080Z,30.60
2019-06-20T17:15:22.844Z,30.60
2019-06-20T17:18:20.485Z,30.60
2019-06-20T17:21:17.760Z,30.60
2019-06-20T17:24:12.841Z,30.60
2019-06-20T17:27:09.722Z,30.60
2019-06-20T17:30:05.431Z,30.60
2019-06-20T17:33:00.671Z,30.60
2019-06-20T17:35:56.421Z,30.60
2019-06-20T17:38:51.398Z,30.50
2019-06-20T17:41:54.870Z,30.50
2019-06-20T17:44:42.657Z,30.50
2019-06-20T17:47:38.324Z,30.50
2019-06-20T17:50:34.862Z,30.50
2019-06-20T17:53:31.393Z,30.50
2019-06-20T17:56:25.845Z,30.40
2019-06-20T17:59:22.665Z,30.40
2019-06-20T18:02:16.789Z,30.40
2019-06-20T18:05:12.394Z,30.40
2019-06-20T18:08:15.107Z,30.30
2019-06-20T18:11:03.736Z,30.30
2019-06-20T18:13:58.956Z,30.30
2019-06-20T18:16:54.366Z,30.30
2019-06-20T18:19:49.465Z,30.20
2019-06-20T18:22:44.745Z,30.20
2019-06-20T18:25:39.852Z,30.20
2019-06-20T18:28:36.099Z,30.20
2019-06-20T18:31:31.055Z,30.10
2019-06-20T18:34:30.087Z,30.10
2019-06-20T18:37:31.451Z,30.10
2019-06-20T18:40:21.299Z,30.00
2019-06-20T18:43:16.593Z,30.00
2019-06-20T18:46:13.023Z,30.00
2019-06-20T18:49:07.941Z,29.90
2019-06-20T18:52:03.082Z,30.00
2019-06-20T18:54:58.116Z,30.00
2019-06-20T18:57:52.966Z,29.90
2019-06-20T19:00:47.824Z,29.90
2019-06-20T19:03:42.519Z,29.90
2019-06-20T19:06:38.612Z,29.90
2019-06-20T19:09:33.517Z,29.90
2019-06-20T19:12:28.059Z,29.90
2019-06-20T19:15:22.953Z,29.90
2019-06-20T19:18:18.825Z,29.90
2019-06-20T19:21:13.781Z,29.90
2019-06-20T19:24:08.654Z,29.90
2019-06-20T19:27:03.751Z,29.90
2019-06-20T19:29:58.729Z,29.90
2019-06-20T19:32:53.817Z,29.90
2019-06-20T19:35:48.597Z,29.90
2019-06-20T19:38:43.521Z,29.90
2019-06-20T19:41:38.246Z,29.90
2019-06-20T19:44:32.777Z,29.90
2019-06-20T19:47:28.473Z,30.00
2019-06-20T19:50:23.723Z,30.00
2019-06-20T19:53:18.734Z,30.00
2019-06-20T19:56:15.273Z,30.00
2019-06-20T19:59:10.257Z,30.00
2019-06-20T20:02:06.605Z,30.00
2019-06-20T20:05:14.871Z,30.00
2019-06-20T20:07:57.834Z,29.90
2019-06-20T20:10:54.211Z,29.90
2019-06-20T20:13:48.822Z,29.90
2019-06-20T20:16:43.495Z,29.80
2019-06-20T20:19:39.589Z,29.80
2019-06-20T20:22:34.685Z,29.80
2019-06-20T20:25:30.175Z,29.70
2019-06-20T20:28:26.027Z,29.80
2019-06-20T20:31:20.954Z,29.70
2019-06-20T20:34:16.110Z,29.70
2019-06-20T20:37:11.104Z,29.70
2019-06-20T20:40:06.342Z,29.70
2019-06-20T20:43:01.756Z,29.60
2019-06-20T20:45:56.902Z,29.60
2019-06-20T20:48:51.930Z,29.70
2019-06-20T20:51:47.020Z,29.60
2019-06-20T20:54:41.912Z,29.60
2019-06-20T20:57:37.302Z,29.60
2019-06-20T21:00:36.248Z,29.60
2019-06-20T21:03:32.437Z,29.60
2019-06-20T21:06:28.544Z,29.60
2019-06-20T21:09:24.475Z,29.50
2019-06-20T21:12:19.066Z,29.50
2019-06-20T21:15:15.843Z,29.60
2019-06-20T21:18:10.333Z,29.60
2019-06-20T21:21:05.533Z,29.50
2019-06-20T21:24:00.756Z,29.50
2019-06-20T21:26:55.910Z,29.50
2019-06-20T21:29:51.101Z,29.60
2019-06-20T21:32:47.804Z,29.60
2019-06-20T21:35:42.826Z,29.50
2019-06-20T21:38:38.007Z,29.50
2019-06-20T21:41:34.025Z,29.50
2019-06-20T21:44:28.981Z,29.50
2019-06-20T21:47:24.062Z,29.50
2019-06-20T21:50:19.273Z,29.50
2019-06-20T21:53:14.375Z,29.40
2019-06-20T21:56:09.888Z,29.40
2019-06-20T21:59:04.888Z,29.40
2019-06-20T22:02:00.662Z,29.40
2019-06-20T22:04:55.932Z,29.40
2019-06-20T22:07:51.664Z,29.40
2019-06-20T22:10:46.946Z,29.40
2019-06-20T22:13:43.264Z,29.40
2019-06-20T22:16:38.148Z,29.40
2019-06-20T22:19:32.911Z,29.40
2019-06-20T22:22:27.808Z,29.40
2019-06-20T22:25:23.117Z,29.40
2019-06-20T22:28:18.354Z,29.40
2019-06-20T22:31:13.079Z,29.40
2019-06-20T22:34:08.110Z,29.40
2019-06-20T22:37:03.151Z,29.40
2019-06-20T22:39:58.177Z,29.40
2019-06-20T22:42:52.657Z,29.40
2019-06-20T22:45:47.712Z,29.40
2019-06-20T22:48:43.207Z,29.40
2019-06-20T22:51:37.976Z,29.40
2019-06-20T22:54:32.768Z,29.40
2019-06-20T22:57:27.745Z,29.40
2019-06-20T23:00:24.360Z,29.50
2019-06-20T23:03:19.557Z,29.40
2019-06-20T23:06:14.500Z,29.40
2019-06-20T23:09:10.407Z,29.40
2019-06-20T23:12:06.589Z,29.40
2019-06-20T23:15:01.901Z,29.50
2019-06-20T23:17:56.649Z,29.50
2019-06-20T23:21:04.186Z,29.50
2019-06-20T23:23:48.109Z,29.40
2019-06-20T23:26:43.059Z,29.50
2019-06-20T23:29:38.224Z,29.40
2019-06-20T23:32:33.282Z,29.50
2019-06-20T23:35:33.699Z,29.50
2019-06-20T23:38:28.824Z,29.50
2019-06-20T23:41:23.738Z,29.50
2019-06-20T23:44:18.792Z,29.50
2019-06-20T23:47:14.605Z,29.50
2019-06-20T23:50:11.240Z,29.50
2019-06-20T23:53:11.304Z,29.50
2019-06-20T23:56:08.023Z,29.50
2019-06-20T23:59:03.929Z,29.50
